Tapso, Argentina
Current Conditions -  °F | °C
As of 7:00 PM on Monday 24 Nov 2014 (Local Time) from SANT Reporting Station
Few Clouds Few Clouds  
Wind Chill: 32°   Ceiling: Unl
Heat Index: 34°   Visibility: 6mi
Dew Point: 20°   Wind: 9mph
Humidity: 49%   Direction: 200°SSW
Pressure: 29.65"   Gusts: NA
Location:  28.41°S, 65.09°W
Report Text: SANT 242200Z 20008KT 9999 FEW040TCU FEW050CB 32/20 Q1004
Loading
Personal Weather Stations






























Interactive Weather Map New forecast layout! Learn more

10-Day Weather Forecast

Advertisements
Track Severe Weather on mobile